createdAt,value
2022-08-17T00:00:54.392Z,13.98
2022-08-17T00:03:30.396Z,9.07
2022-08-17T00:06:07.009Z,8.50
2022-08-17T00:08:41.406Z,11.38
2022-08-17T00:11:19.350Z,9.02
2022-08-17T00:13:56.072Z,10.70
2022-08-17T00:16:55.569Z,9.60
2022-08-17T00:19:26.765Z,11.82
2022-08-17T00:22:31.234Z,10.40
2022-08-17T00:24:53.382Z,9.43
2022-08-17T00:27:27.522Z,10.50
2022-08-17T00:30:00.395Z,12.02
2022-08-17T00:35:30.010Z,10.68
2022-08-17T00:38:04.131Z,8.80
2022-08-17T00:40:44.447Z,7.70
2022-08-17T00:43:22.126Z,9.02
2022-08-17T00:45:55.420Z,8.07
2022-08-17T00:48:29.823Z,13.60
2022-08-17T00:51:09.100Z,10.07
2022-08-17T00:53:45.293Z,10.32
2022-08-17T00:56:23.287Z,8.90
2022-08-17T00:58:57.796Z,9.15
2022-08-17T01:01:31.093Z,9.95
2022-08-17T01:04:05.567Z,13.02
2022-08-17T01:06:38.715Z,12.45
2022-08-17T01:09:11.639Z,10.48
2022-08-17T01:14:19.415Z,19.60
2022-08-17T01:16:54.910Z,15.68
2022-08-17T01:19:30.353Z,20.05
2022-08-17T01:22:09.187Z,17.48
2022-08-17T01:24:45.811Z,21.20
2022-08-17T01:27:20.546Z,19.10
2022-08-17T01:29:58.593Z,21.92
2022-08-17T01:32:31.520Z,24.23
2022-08-17T01:37:41.892Z,22.83
2022-08-17T01:40:22.801Z,13.70
2022-08-17T01:42:59.708Z,15.82
2022-08-17T01:45:37.729Z,18.95
2022-08-17T01:48:11.073Z,18.08
2022-08-17T01:50:45.617Z,18.13
2022-08-17T01:53:27.274Z,14.88
2022-08-17T01:56:08.330Z,14.93
2022-08-17T01:58:42.750Z,13.18
2022-08-17T02:01:18.679Z,15.50
2022-08-17T02:03:56.333Z,18.83
2022-08-17T02:06:53.745Z,12.43
2022-08-17T02:09:30.232Z,16.63
2022-08-17T02:12:38.358Z,15.80
2022-08-17T02:14:58.203Z,16.10
2022-08-17T02:17:30.906Z,19.52
2022-08-17T02:20:04.454Z,14.38
2022-08-17T02:22:40.281Z,19.17
2022-08-17T02:25:16.227Z,16.60
2022-08-17T02:27:50.270Z,18.42
2022-08-17T02:30:59.055Z,18.25
2022-08-17T02:33:15.926Z,19.38
2022-08-17T02:35:48.721Z,16.13
2022-08-17T02:38:21.409Z,15.95
2022-08-17T02:40:54.181Z,16.17
2022-08-17T02:43:28.762Z,12.75
2022-08-17T02:46:02.436Z,13.43
2022-08-17T02:48:35.485Z,16.90
2022-08-17T02:51:09.198Z,11.05
2022-08-17T02:53:42.062Z,13.65
2022-08-17T02:58:49.183Z,11.47
2022-08-17T03:01:21.891Z,12.57
2022-08-17T03:03:54.718Z,10.68
2022-08-17T03:06:28.492Z,10.90
2022-08-17T03:09:01.278Z,10.25
2022-08-17T03:14:08.218Z,11.18
2022-08-17T03:16:40.931Z,12.90
2022-08-17T03:19:15.337Z,15.40
2022-08-17T03:24:29.157Z,15.13
2022-08-17T03:27:02.503Z,12.55
2022-08-17T03:29:36.525Z,13.43
2022-08-17T03:32:13.757Z,13.23
2022-08-17T03:34:46.503Z,11.52
2022-08-17T03:37:19.224Z,12.15
2022-08-17T03:39:51.960Z,12.98
2022-08-17T03:42:32.498Z,12.57
2022-08-17T03:45:14.110Z,15.63
2022-08-17T03:48:06.344Z,14.35
2022-08-17T03:50:56.446Z,11.57
2022-08-17T03:53:46.968Z,12.27
2022-08-17T03:56:42.667Z,13.82
2022-08-17T03:59:22.411Z,14.18
2022-08-17T04:02:00.018Z,9.05
2022-08-17T04:04:32.803Z,9.52
2022-08-17T04:07:06.494Z,7.32
2022-08-17T04:09:39.344Z,7.55
2022-08-17T04:12:12.290Z,10.65
2022-08-17T04:14:52.793Z,9.07
2022-08-17T04:17:30.093Z,7.07
2022-08-17T04:20:02.839Z,7.15
2022-08-17T04:22:35.521Z,9.65
2022-08-17T04:25:14.702Z,6.45
2022-08-17T04:27:48.718Z,7.25
2022-08-17T04:30:22.605Z,7.70
2022-08-17T04:33:06.389Z,9.73
2022-08-17T04:35:41.842Z,10.93
2022-08-17T04:38:17.490Z,9.13
2022-08-17T04:41:08.570Z,8.82
2022-08-17T04:43:43.128Z,8.07
2022-08-17T04:46:18.396Z,9.95
2022-08-17T04:48:55.062Z,6.93
2022-08-17T04:51:30.398Z,8.82
2022-08-17T04:54:06.293Z,8.40
2022-08-17T04:56:40.139Z,6.97
2022-08-17T04:59:16.184Z,6.88
2022-08-17T05:01:51.175Z,7.60
2022-08-17T05:04:33.923Z,8.57
2022-08-17T05:07:07.930Z,7.25
2022-08-17T05:09:40.621Z,7.63
2022-08-17T05:12:13.386Z,7.20
2022-08-17T05:14:46.084Z,7.13
2022-08-17T05:17:18.732Z,8.23
2022-08-17T05:19:52.821Z,7.55
2022-08-17T05:22:25.494Z,6.40
2022-08-17T05:24:58.167Z,8.30
2022-08-17T05:27:35.302Z,5.93
2022-08-17T05:30:09.482Z,6.28
2022-08-17T05:32:52.034Z,7.60
2022-08-17T05:35:27.626Z,6.47
2022-08-17T05:38:00.866Z,7.72
2022-08-17T05:40:33.517Z,8.15
2022-08-17T05:43:08.902Z,7.25
2022-08-17T05:45:55.784Z,8.85
2022-08-17T05:48:35.562Z,6.75
2022-08-17T05:51:56.521Z,7.32
2022-08-17T05:54:39.942Z,6.80
2022-08-17T05:57:28.366Z,7.00
2022-08-17T06:00:10.658Z,6.68
2022-08-17T06:02:59.300Z,7.75
2022-08-17T06:05:46.570Z,8.68
2022-08-17T06:08:31.734Z,7.03
2022-08-17T06:11:15.555Z,9.68
2022-08-17T06:14:09.265Z,6.53
2022-08-17T06:16:46.318Z,7.43
2022-08-17T06:19:25.460Z,9.18
2022-08-17T06:21:59.388Z,8.25
2022-08-17T06:24:39.003Z,6.90
2022-08-17T06:27:19.794Z,8.15
2022-08-17T06:29:56.778Z,9.98
2022-08-17T06:32:31.197Z,7.53
2022-08-17T06:35:04.472Z,15.35
2022-08-17T06:38:01.133Z,20.50
2022-08-17T06:40:58.217Z,19.38
2022-08-17T06:43:47.907Z,21.60
2022-08-17T06:46:25.978Z,19.52
2022-08-17T06:49:11.565Z,24.90
2022-08-17T06:51:50.523Z,17.63
2022-08-17T06:54:34.892Z,21.50
2022-08-17T06:57:15.666Z,18.30
2022-08-17T06:59:56.264Z,25.10
2022-08-17T07:03:02.720Z,20.38
2022-08-17T07:05:39.577Z,17.38
2022-08-17T07:08:18.518Z,19.88
2022-08-17T07:10:55.842Z,19.90
2022-08-17T07:13:41.968Z,24.40
2022-08-17T07:16:20.534Z,21.77
2022-08-17T07:18:54.748Z,19.77
2022-08-17T07:21:40.761Z,19.40
2022-08-17T07:24:37.236Z,17.38
2022-08-17T07:27:15.704Z,20.83
2022-08-17T07:29:54.586Z,18.25
2022-08-17T07:32:31.540Z,20.45
2022-08-17T07:35:15.126Z,23.42
2022-08-17T07:37:53.046Z,16.92
2022-08-17T07:40:30.600Z,16.95
2022-08-17T07:43:22.061Z,17.20
2022-08-17T07:46:38.858Z,16.85
2022-08-17T07:49:24.930Z,20.33
2022-08-17T07:52:47.509Z,17.30
2022-08-17T07:54:56.764Z,24.70
2022-08-17T07:57:36.139Z,24.23
2022-08-17T08:00:26.717Z,17.42
2022-08-17T08:03:15.978Z,22.52
2022-08-17T08:05:51.818Z,17.33
2022-08-17T08:08:32.023Z,17.85
2022-08-17T08:11:09.822Z,21.45
2022-08-17T08:13:45.701Z,18.40
2022-08-17T08:16:25.460Z,20.23
2022-08-17T08:19:02.111Z,18.25
2022-08-17T08:21:46.668Z,18.35
2022-08-17T08:24:43.366Z,15.02
2022-08-17T08:27:23.576Z,13.65
2022-08-17T08:30:04.841Z,12.77
2022-08-17T08:32:52.225Z,14.90
2022-08-17T08:35:32.393Z,14.95
2022-08-17T08:38:15.677Z,10.45
2022-08-17T08:41:02.935Z,17.52
2022-08-17T08:43:49.555Z,23.52
2022-08-17T08:46:31.899Z,21.45
2022-08-17T08:50:01.937Z,18.63
2022-08-17T08:52:43.834Z,14.82
2022-08-17T08:55:23.173Z,10.95
2022-08-17T08:58:01.323Z,13.02
2022-08-17T09:00:39.280Z,13.85
2022-08-17T09:03:52.250Z,12.90
2022-08-17T09:06:39.583Z,9.60
2022-08-17T09:09:24.294Z,8.15
2022-08-17T09:12:04.994Z,9.85
2022-08-17T09:14:46.674Z,8.73
2022-08-17T09:17:22.826Z,7.97
2022-08-17T09:20:03.921Z,9.68
2022-08-17T09:22:42.820Z,8.15
2022-08-17T09:25:21.776Z,13.02
2022-08-17T09:27:58.533Z,11.35
2022-08-17T09:30:40.055Z,9.57
2022-08-17T09:33:17.601Z,13.55
2022-08-17T09:35:56.606Z,9.90
2022-08-17T09:38:36.138Z,11.93
2022-08-17T09:41:16.795Z,8.95
2022-08-17T09:43:56.259Z,9.95
2022-08-17T09:46:32.915Z,8.43
2022-08-17T09:49:12.573Z,9.23
2022-08-17T09:51:53.195Z,9.45
2022-08-17T09:54:45.333Z,6.68
2022-08-17T09:57:31.639Z,9.13
2022-08-17T10:00:16.949Z,8.40
2022-08-17T10:03:02.576Z,6.45
2022-08-17T10:05:46.557Z,6.03
2022-08-17T10:08:27.742Z,6.85
2022-08-17T10:11:12.343Z,6.65
2022-08-17T10:13:53.122Z,5.80
2022-08-17T10:16:35.395Z,5.72
2022-08-17T10:19:16.294Z,7.30
2022-08-17T10:22:16.890Z,5.72
2022-08-17T10:25:37.807Z,6.00
2022-08-17T10:28:29.408Z,5.15
2022-08-17T10:34:20.906Z,5.45
2022-08-17T10:36:59.947Z,5.35
2022-08-17T10:39:52.356Z,6.25
2022-08-17T10:42:36.254Z,8.00
2022-08-17T10:45:19.890Z,8.43
2022-08-17T10:48:06.349Z,5.53
2022-08-17T10:51:08.738Z,6.95
2022-08-17T10:53:56.506Z,4.38
2022-08-17T10:56:51.002Z,5.38
2022-08-17T10:59:57.247Z,5.65
2022-08-17T11:02:31.794Z,7.45
2022-08-17T11:05:43.824Z,6.55
2022-08-17T11:09:14.400Z,5.65
2022-08-17T11:12:15.194Z,8.05
2022-08-17T11:15:00.974Z,9.63
2022-08-17T11:17:52.779Z,8.48
2022-08-17T11:21:13.208Z,9.30
2022-08-17T11:23:59.372Z,6.93
2022-08-17T11:26:35.791Z,7.78
2022-08-17T11:29:20.158Z,7.43
2022-08-17T11:32:06.019Z,8.52
2022-08-17T11:34:40.645Z,9.93
2022-08-17T11:37:28.617Z,9.35
2022-08-17T11:40:19.109Z,10.80
2022-08-17T11:43:17.340Z,9.60
2022-08-17T11:46:03.905Z,10.15
2022-08-17T11:49:01.400Z,9.57
2022-08-17T11:52:12.584Z,8.90
2022-08-17T11:54:48.828Z,13.48
2022-08-17T11:58:02.001Z,13.38
2022-08-17T12:00:50.310Z,11.43
2022-08-17T12:03:55.587Z,12.70
2022-08-17T12:06:35.308Z,12.40
2022-08-17T12:09:13.676Z,12.35
2022-08-17T12:12:12.841Z,13.82
2022-08-17T12:15:09.501Z,13.27
2022-08-17T12:17:53.955Z,13.88
2022-08-17T12:20:33.323Z,17.80
2022-08-17T12:23:13.630Z,16.10
2022-08-17T12:25:55.268Z,14.30
2022-08-17T12:28:32.424Z,17.00
2022-08-17T12:31:07.882Z,16.02
2022-08-17T12:33:44.762Z,14.40
2022-08-17T12:36:21.535Z,20.33
2022-08-17T12:38:59.505Z,19.77
2022-08-17T12:41:50.278Z,20.08
2022-08-17T12:44:28.626Z,19.05
2022-08-17T12:47:04.763Z,27.73
2022-08-17T12:49:39.407Z,22.55
2022-08-17T12:52:18.414Z,26.33
2022-08-17T12:54:56.062Z,25.92
2022-08-17T12:57:33.574Z,22.85
2022-08-17T13:00:17.405Z,26.52
2022-08-17T13:02:53.700Z,22.80
2022-08-17T13:05:30.216Z,26.00
2022-08-17T13:08:06.034Z,24.98
2022-08-17T13:10:39.085Z,24.88
2022-08-17T13:15:58.682Z,26.88
2022-08-17T13:18:39.859Z,23.23
2022-08-17T13:21:22.902Z,25.88
2022-08-17T13:23:58.515Z,19.50
2022-08-17T13:26:35.211Z,19.63
2022-08-17T13:29:18.415Z,27.20
2022-08-17T13:31:59.758Z,23.50
2022-08-17T13:35:12.621Z,20.50
2022-08-17T13:37:35.636Z,19.17
2022-08-17T13:40:32.173Z,18.85
2022-08-17T13:43:06.022Z,22.40
2022-08-17T13:46:07.891Z,22.08
2022-08-17T13:48:42.051Z,18.55
2022-08-17T13:51:31.900Z,18.40
2022-08-17T13:54:08.245Z,17.48
2022-08-17T13:56:56.264Z,18.83
2022-08-17T13:59:52.568Z,15.68
2022-08-17T14:02:35.793Z,15.00
2022-08-17T14:05:15.556Z,14.90
2022-08-17T14:10:58.198Z,15.15
2022-08-17T14:13:32.310Z,16.23
2022-08-17T14:16:05.892Z,16.55
2022-08-17T14:18:56.075Z,15.95
2022-08-17T14:21:31.480Z,19.33
2022-08-17T14:24:04.945Z,21.70
2022-08-17T14:26:39.540Z,17.17
2022-08-17T14:29:12.625Z,19.02
2022-08-17T14:31:53.264Z,17.70
2022-08-17T14:34:27.351Z,20.60
2022-08-17T14:37:01.309Z,18.23
2022-08-17T14:39:34.070Z,18.55
2022-08-17T14:42:07.078Z,16.13
2022-08-17T14:44:39.868Z,18.30
2022-08-17T14:47:14.843Z,20.20
2022-08-17T14:49:49.009Z,20.67
2022-08-17T14:52:23.081Z,19.23
2022-08-17T14:54:55.995Z,22.55
2022-08-17T15:00:09.170Z,19.05
2022-08-17T15:02:48.252Z,17.38
2022-08-17T15:05:23.346Z,18.55
2022-08-17T15:07:57.554Z,19.73
2022-08-17T15:10:31.361Z,17.95
2022-08-17T15:13:04.273Z,18.13
2022-08-17T15:18:09.651Z,14.88
2022-08-17T15:20:44.361Z,18.33
2022-08-17T15:23:24.034Z,18.50
2022-08-17T15:25:56.703Z,17.02
2022-08-17T15:28:29.731Z,17.50
2022-08-17T15:31:03.232Z,18.38
2022-08-17T15:33:36.062Z,17.63
2022-08-17T15:36:09.359Z,16.92
2022-08-17T15:38:44.574Z,16.33
2022-08-17T15:41:19.234Z,17.50
2022-08-17T15:43:51.998Z,19.05
2022-08-17T15:46:26.856Z,15.25
2022-08-17T15:48:59.672Z,19.60
2022-08-17T15:51:34.387Z,15.88
2022-08-17T15:54:19.414Z,19.23
2022-08-17T15:56:55.642Z,18.63
2022-08-17T15:59:30.922Z,17.50
2022-08-17T16:03:15.958Z,15.45
2022-08-17T16:04:57.481Z,19.85
2022-08-17T16:07:31.201Z,17.02
2022-08-17T16:10:06.682Z,17.95
2022-08-17T16:12:39.785Z,14.77
2022-08-17T16:15:13.728Z,14.07
2022-08-17T16:17:46.408Z,13.30
2022-08-17T16:20:20.540Z,11.63
2022-08-17T16:22:54.178Z,11.38
2022-08-17T16:25:50.375Z,13.10
2022-08-17T16:28:36.039Z,10.75
2022-08-17T16:31:09.363Z,12.38
2022-08-17T16:36:31.076Z,13.30
2022-08-17T16:39:04.711Z,17.95
2022-08-17T16:41:45.195Z,13.60
2022-08-17T16:44:19.963Z,13.90
2022-08-17T16:46:53.068Z,14.02
2022-08-17T16:52:11.474Z,12.35
2022-08-17T16:54:46.878Z,12.82
2022-08-17T16:57:20.910Z,11.52
2022-08-17T16:59:54.401Z,12.00
2022-08-17T17:02:30.593Z,11.93
2022-08-17T17:05:06.727Z,11.73
2022-08-17T17:08:01.777Z,10.48
2022-08-17T17:10:44.273Z,9.88
2022-08-17T17:13:26.157Z,9.38
2022-08-17T17:16:04.778Z,10.35
2022-08-17T17:18:40.877Z,11.95
2022-08-17T17:21:17.728Z,9.88
2022-08-17T17:23:55.943Z,11.90
2022-08-17T17:26:45.088Z,12.27
2022-08-17T17:29:46.513Z,11.68
2022-08-17T17:32:29.205Z,14.02
2022-08-17T17:35:06.203Z,11.35
2022-08-17T17:37:42.534Z,14.48
2022-08-17T17:40:20.426Z,15.60
2022-08-17T17:42:55.048Z,15.68
2022-08-17T17:45:37.038Z,15.30
2022-08-17T17:48:09.770Z,15.63
2022-08-17T17:50:49.207Z,14.82
2022-08-17T17:53:37.481Z,15.77
2022-08-17T17:56:43.186Z,16.77
2022-08-17T17:59:24.374Z,17.02
2022-08-17T18:02:07.407Z,15.23
2022-08-17T18:07:28.440Z,14.45
2022-08-17T18:10:19.847Z,16.05
2022-08-17T18:13:12.707Z,12.70
2022-08-17T18:15:51.054Z,15.18
2022-08-17T18:18:40.227Z,11.88
2022-08-17T18:21:16.855Z,15.00
2022-08-17T18:24:00.976Z,11.18
2022-08-17T18:26:48.540Z,10.65
2022-08-17T18:29:38.367Z,12.13
2022-08-17T18:32:29.924Z,9.13
2022-08-17T18:35:34.974Z,9.57
2022-08-17T18:38:23.569Z,7.27
2022-08-17T18:41:03.041Z,9.20
2022-08-17T18:43:52.984Z,7.97
2022-08-17T18:46:30.555Z,6.85
2022-08-17T18:49:07.509Z,7.95
2022-08-17T18:51:43.492Z,6.75
2022-08-17T18:54:19.764Z,7.35
2022-08-17T18:56:55.558Z,7.10
2022-08-17T18:59:34.009Z,7.32
2022-08-17T19:02:37.275Z,6.50
2022-08-17T19:05:29.890Z,6.78
2022-08-17T19:08:21.041Z,6.85
2022-08-17T19:10:56.750Z,9.02
2022-08-17T19:13:34.969Z,6.68
2022-08-17T19:16:15.928Z,5.88
2022-08-17T19:18:54.146Z,6.40
2022-08-17T19:21:36.530Z,6.32
2022-08-17T19:24:20.007Z,6.30
2022-08-17T19:27:01.405Z,8.82
2022-08-17T19:29:44.064Z,8.13
2022-08-17T19:32:23.137Z,8.98
2022-08-17T19:34:56.940Z,7.40
2022-08-17T19:37:39.507Z,6.38
2022-08-17T19:40:51.117Z,7.03
2022-08-17T19:43:24.414Z,7.07
2022-08-17T19:46:06.381Z,10.77
2022-08-17T19:48:47.352Z,6.10
2022-08-17T19:51:28.110Z,7.25
2022-08-17T19:54:08.902Z,6.75
2022-08-17T19:56:51.574Z,10.00
2022-08-17T19:59:48.922Z,4.50
2022-08-17T20:02:36.229Z,5.53
2022-08-17T20:05:14.463Z,6.55
2022-08-17T20:07:51.205Z,8.45
2022-08-17T20:10:40.299Z,7.13
2022-08-17T20:13:32.771Z,6.13
2022-08-17T20:16:06.922Z,6.88
2022-08-17T20:18:51.276Z,5.82
2022-08-17T20:21:30.234Z,6.70
2022-08-17T20:24:14.174Z,7.25
2022-08-17T20:26:58.105Z,5.05
2022-08-17T20:29:39.726Z,7.50
2022-08-17T20:32:22.185Z,7.22
2022-08-17T20:35:20.108Z,7.47
2022-08-17T20:37:56.439Z,12.32
2022-08-17T20:40:35.432Z,9.70
2022-08-17T20:43:44.719Z,8.55
2022-08-17T20:46:40.886Z,11.60
2022-08-17T20:49:21.359Z,11.80
2022-08-17T20:52:01.639Z,13.50
2022-08-17T20:54:50.992Z,5.45
2022-08-17T20:57:47.319Z,9.57
2022-08-17T21:00:45.877Z,10.48
2022-08-17T21:03:50.097Z,9.65
2022-08-17T21:06:26.018Z,9.18
2022-08-17T21:09:20.480Z,6.88
2022-08-17T21:12:04.363Z,7.13
2022-08-17T21:14:58.029Z,6.72
2022-08-17T21:17:51.469Z,8.55
2022-08-17T21:20:44.598Z,5.10
2022-08-17T21:23:40.316Z,7.60
2022-08-17T21:26:25.557Z,4.60
2022-08-17T21:29:14.687Z,4.70
2022-08-17T21:32:24.221Z,6.80
2022-08-17T21:35:23.597Z,7.97
2022-08-17T21:38:04.382Z,3.97
2022-08-17T21:40:37.630Z,5.32
2022-08-17T21:43:23.889Z,4.97
2022-08-17T21:46:02.183Z,5.05
2022-08-17T21:48:43.999Z,4.32
2022-08-17T21:51:20.529Z,5.75
2022-08-17T21:53:58.627Z,4.97
2022-08-17T21:56:33.916Z,5.78
2022-08-17T21:59:09.154Z,6.13
2022-08-17T22:01:43.718Z,4.97
2022-08-17T22:04:28.940Z,6.63
2022-08-17T22:07:03.288Z,6.85
2022-08-17T22:09:43.774Z,5.22
2022-08-17T22:12:18.036Z,6.30
2022-08-17T22:15:00.398Z,7.78
2022-08-17T22:17:35.903Z,5.55
2022-08-17T22:20:14.346Z,5.28
2022-08-17T22:23:24.727Z,4.03
2022-08-17T22:26:02.017Z,5.03
2022-08-17T22:28:42.897Z,4.50
2022-08-17T22:31:18.358Z,5.47
2022-08-17T22:34:07.450Z,4.63
2022-08-17T22:36:41.911Z,4.50
2022-08-17T22:39:41.999Z,5.15
2022-08-17T22:42:16.571Z,4.28
2022-08-17T22:44:52.180Z,3.40
2022-08-17T22:47:38.818Z,5.15
2022-08-17T22:50:21.599Z,5.05
2022-08-17T22:53:17.804Z,4.35
2022-08-17T22:56:09.702Z,4.70
2022-08-17T22:59:11.126Z,5.22
2022-08-17T23:01:46.244Z,4.20
2022-08-17T23:04:33.349Z,4.93
2022-08-17T23:07:06.785Z,4.25
2022-08-17T23:09:39.640Z,6.70
2022-08-17T23:12:17.715Z,4.88
2022-08-17T23:14:58.412Z,3.92
2022-08-17T23:17:37.106Z,5.00
2022-08-17T23:20:13.067Z,4.15
2022-08-17T23:22:52.102Z,3.63
2022-08-17T23:25:29.235Z,7.93
2022-08-17T23:28:04.197Z,4.00
2022-08-17T23:30:43.105Z,4.03
2022-08-17T23:33:21.239Z,4.35
2022-08-17T23:35:54.258Z,3.85
2022-08-17T23:41:02.684Z,4.68
2022-08-17T23:43:36.306Z,4.32
2022-08-17T23:46:10.455Z,4.75
2022-08-17T23:48:43.627Z,7.20
2022-08-17T23:51:20.211Z,4.82
2022-08-17T23:53:56.630Z,4.05
2022-08-17T23:56:29.309Z,5.03
2022-08-17T23:59:02.737Z,4.47
